Time;durP1;ratioP1;P1;durP2;ratioP2;P2;SDS_P1;SDS_P2;PMS_P1;PMS_P2;Temp;Humidity;BMP_temperature;BMP_pressure;BME280_temperature;BME280_humidity;BME280_pressure;Samples;Min_cycle;Max_cycle;Signal;HPM_P1;HPM_P2
2021/12/08 00:00:51;;;;;;;2.60;1.87;;;6.30;99.90;;;;;;5077333;28;20202;-79
2021/12/08 00:03:23;;;;;;;2.80;1.77;;;6.30;99.90;;;;;;5094300;28;20170;-80
2021/12/08 00:05:50;;;;;;;2.73;1.67;;;6.30;99.90;;;;;;5094300;28;20178;-78
2021/12/08 00:08:19;;;;;;;3.40;1.80;;;6.30;99.90;;;;;;5077825;28;20186;-81
2021/12/08 00:13:23;;;;;;;2.47;1.70;;;6.30;99.90;;;;;;5111617;28;20280;-79
2021/12/08 00:15:53;;;;;;;5.00;2.70;;;6.40;99.90;;;;;;5112137;28;20209;-80
2021/12/08 00:18:24;;;;;;;5.30;2.43;;;6.30;99.90;;;;;;5111895;28;20205;-79
2021/12/08 00:20:58;;;;;;;3.47;2.23;;;6.20;99.90;;;;;;5112679;28;20171;-82
2021/12/08 00:23:25;;;;;;;8.03;2.17;;;6.10;99.90;;;;;;5112340;28;20181;-77
2021/12/08 00:25:52;;;;;;;5.03;2.27;;;6.30;99.90;;;;;;5110926;28;20270;-80
2021/12/08 00:28:18;;;;;;;3.20;2.20;;;6.20;99.90;;;;;;5112224;28;20163;-77
2021/12/08 00:30:47;;;;;;;4.00;2.27;;;6.00;99.90;;;;;;5112739;28;20191;-77
2021/12/08 00:33:13;;;;;;;4.43;2.13;;;6.20;99.90;;;;;;5111742;28;20200;-78
2021/12/08 00:35:40;;;;;;;4.10;2.00;;;6.10;99.90;;;;;;5110544;28;20618;-77
2021/12/08 00:38:07;;;;;;;4.27;2.03;;;5.80;99.90;;;;;;5077322;28;20178;-78
2021/12/08 00:40:33;;;;;;;2.97;1.80;;;5.80;99.90;;;;;;5111684;28;20499;-79
2021/12/08 00:43:00;;;;;;;2.27;1.70;;;5.90;99.90;;;;;;5110574;28;20175;-77
2021/12/08 00:45:27;;;;;;;5.10;1.63;;;5.90;99.90;;;;;;5109944;28;20171;-79
2021/12/08 00:47:54;;;;;;;3.23;1.87;;;6.00;99.90;;;;;;5076941;28;20220;-79
2021/12/08 00:50:25;;;;;;;4.70;1.87;;;6.00;99.90;;;;;;5110091;28;20669;-77
2021/12/08 00:52:51;;;;;;;4.67;1.67;;;5.90;99.90;;;;;;5111618;28;20217;-78
2021/12/08 00:55:18;;;;;;;3.40;1.73;;;5.90;99.90;;;;;;5093002;28;20175;-77
2021/12/08 00:57:44;;;;;;;3.43;1.80;;;6.00;99.90;;;;;;5111724;28;20191;-79
2021/12/08 01:00:20;;;;;;;2.93;2.10;;;6.00;99.90;;;;;;5093011;28;20178;-78
2021/12/08 01:02:46;;;;;;;4.30;2.17;;;6.00;99.90;;;;;;5111777;28;20167;-79
2021/12/08 01:05:17;;;;;;;4.07;1.73;;;6.20;99.90;;;;;;5110580;28;20175;-78
2021/12/08 01:07:44;;;;;;;4.00;1.70;;;6.10;99.90;;;;;;5114701;28;20179;-80
2021/12/08 01:10:17;;;;;;;3.67;1.87;;;6.10;99.90;;;;;;5114334;28;20191;-78
2021/12/08 01:12:44;;;;;;;2.50;1.97;;;5.90;99.90;;;;;;5114433;28;20699;-78
2021/12/08 01:15:14;;;;;;;6.67;1.63;;;6.00;99.90;;;;;;5114307;28;20676;-78
2021/12/08 01:17:40;;;;;;;1.83;1.40;;;5.90;99.90;;;;;;5114389;28;20579;-80
2021/12/08 01:20:09;;;;;;;2.87;1.83;;;5.80;99.90;;;;;;5097300;28;20171;-78
2021/12/08 01:22:35;;;;;;;4.83;1.60;;;5.90;99.90;;;;;;5076678;28;20199;-79
2021/12/08 01:25:01;;;;;;;2.23;1.57;;;5.90;99.90;;;;;;5059995;28;20188;-78
2021/12/08 01:27:26;;;;;;;2.63;1.20;;;5.90;99.90;;;;;;5076341;28;20176;-78
2021/12/08 01:29:54;;;;;;;1.80;1.30;;;5.90;99.90;;;;;;5076479;28;20756;-79
2021/12/08 01:32:21;;;;;;;1.80;1.13;;;6.00;99.90;;;;;;5094630;28;20191;-78
2021/12/08 01:34:47;;;;;;;1.37;1.23;;;5.90;99.90;;;;;;5076410;28;20176;-77
2021/12/08 01:37:13;;;;;;;1.73;1.00;;;5.80;99.90;;;;;;5092915;28;20213;-77
2021/12/08 01:39:38;;;;;;;1.33;1.03;;;5.80;99.90;;;;;;5094277;28;20228;-77
2021/12/08 01:42:06;;;;;;;1.43;0.80;;;5.80;99.90;;;;;;5075651;28;20195;-79
2021/12/08 01:47:17;;;;;;;1.50;1.10;;;5.10;99.90;;;;;;5093427;28;20556;-78
2021/12/08 01:49:44;;;;;;;1.20;0.93;;;5.30;99.90;;;;;;5082998;28;20203;-78
2021/12/08 01:52:10;;;;;;;2.00;1.27;;;5.50;99.90;;;;;;5114902;28;20679;-78
2021/12/08 01:54:36;;;;;;;2.10;1.10;;;4.90;99.90;;;;;;5114446;28;20622;-78
2021/12/08 01:57:02;;;;;;;4.17;1.40;;;5.20;99.90;;;;;;5113460;28;20193;-78
2021/12/08 01:59:28;;;;;;;2.43;0.90;;;4.80;99.90;;;;;;5112973;28;20210;-77
2021/12/08 02:01:54;;;;;;;1.13;0.90;;;5.00;99.90;;;;;;5113371;28;20254;-77
2021/12/08 02:04:20;;;;;;;4.03;1.00;;;5.20;99.90;;;;;;5095752;28;20248;-78
2021/12/08 02:06:47;;;;;;;3.20;0.70;;;5.40;99.90;;;;;;5095736;28;20175;-77
2021/12/08 02:09:16;;;;;;;1.80;1.00;;;5.30;99.90;;;;;;5062273;28;20175;-78
2021/12/08 02:11:51;;;;;;;0.87;0.70;;;5.40;99.90;;;;;;5105354;28;20199;-78
2021/12/08 02:14:17;;;;;;;1.77;0.90;;;5.60;99.90;;;;;;5109765;28;20193;-78
2021/12/08 02:16:43;;;;;;;3.17;1.03;;;5.30;99.90;;;;;;5094380;28;20685;-77
2021/12/08 02:19:09;;;;;;;1.20;0.90;;;4.90;99.90;;;;;;5094538;28;20644;-77
2021/12/08 02:21:38;;;;;;;2.40;0.83;;;5.00;99.90;;;;;;5113208;28;20626;-78
2021/12/08 02:24:13;;;;;;;1.50;1.10;;;5.00;99.90;;;;;;5112097;28;20191;-78
2021/12/08 02:26:42;;;;;;;1.20;1.00;;;4.70;99.90;;;;;;5095140;28;20276;-78
2021/12/08 02:29:25;;;;;;;2.47;0.90;;;5.00;99.90;;;;;;5113229;28;20284;-78
2021/12/08 02:32:02;;;;;;;1.13;0.80;;;5.10;99.90;;;;;;5112814;28;20282;-77
2021/12/08 02:48:12;;;;;;;1.37;0.83;;;5.70;99.90;;;;;;5111329;28;20191;-77
2021/12/08 02:50:43;;;;;;;2.63;1.33;;;5.80;99.90;;;;;;5112161;28;20230;-77
2021/12/08 02:53:11;;;;;;;3.00;1.20;;;5.90;99.90;;;;;;5111094;28;20198;-78
2021/12/08 02:55:39;;;;;;;2.27;1.00;;;5.90;99.90;;;;;;5110922;28;20630;-79
2021/12/08 02:58:06;;;;;;;3.23;1.10;;;5.60;99.90;;;;;;5111021;28;20202;-77
2021/12/08 03:00:43;;;;;;;1.30;0.87;;;5.50;99.90;;;;;;5111942;28;20179;-78
2021/12/08 03:03:09;;;;;;;1.70;0.90;;;5.50;99.90;;;;;;5112267;28;20175;-76
2021/12/08 03:05:35;;;;;;;1.50;0.80;;;5.50;99.90;;;;;;5110255;28;20213;-76
2021/12/08 03:08:03;;;;;;;2.77;1.00;;;5.60;99.90;;;;;;5094025;28;20183;-79
2021/12/08 03:10:33;;;;;;;2.20;1.03;;;5.20;99.90;;;;;;5093532;28;20259;-76
2021/12/08 03:12:59;;;;;;;1.63;0.93;;;5.60;99.90;;;;;;5112066;28;20182;-78
2021/12/08 03:15:24;;;;;;;1.80;1.27;;;5.70;99.90;;;;;;5111598;28;20175;-79
2021/12/08 03:17:50;;;;;;;2.30;1.03;;;5.80;99.90;;;;;;5111824;28;20222;-77
2021/12/08 03:20:27;;;;;;;4.13;1.70;;;5.90;99.90;;;;;;5112034;28;20175;-79
2021/12/08 03:22:59;;;;;;;1.90;1.10;;;5.90;99.90;;;;;;5093692;28;20235;-78
2021/12/08 03:25:28;;;;;;;2.60;1.17;;;5.90;99.90;;;;;;5110298;28;20222;-78
2021/12/08 03:28:06;;;;;;;2.17;1.20;;;5.80;99.90;;;;;;5105438;28;20193;-76
2021/12/08 03:30:38;;;;;;;1.90;1.37;;;5.60;99.90;;;;;;5109328;28;20552;-77
2021/12/08 03:33:05;;;;;;;2.30;1.10;;;5.50;99.90;;;;;;5113180;27;20183;-78
2021/12/08 03:35:30;;;;;;;2.53;1.33;;;5.70;99.90;;;;;;5126681;27;20173;-77
2021/12/08 03:37:57;;;;;;;2.17;1.60;;;5.70;99.90;;;;;;5094429;27;20175;-78
2021/12/08 03:40:25;;;;;;;1.90;1.53;;;5.80;99.90;;;;;;5113884;27;20255;-76
2021/12/08 03:42:54;;;;;;;2.70;1.33;;;5.90;99.90;;;;;;5131721;27;20178;-79
2021/12/08 03:45:29;;;;;;;3.93;1.60;;;5.90;99.90;;;;;;5112908;27;20198;-78
2021/12/08 03:48:01;;;;;;;2.13;1.33;;;5.90;99.90;;;;;;5093261;28;20327;-79
2021/12/08 03:50:27;;;;;;;1.67;1.37;;;5.90;99.90;;;;;;5060931;28;20227;-78
2021/12/08 03:52:55;;;;;;;2.40;1.30;;;5.90;99.90;;;;;;5076270;28;20206;-78
2021/12/08 03:55:21;;;;;;;3.17;1.50;;;6.10;99.90;;;;;;5110732;28;20175;-78
2021/12/08 03:57:46;;;;;;;1.97;1.20;;;5.90;99.90;;;;;;5092887;28;20718;-77
2021/12/08 04:00:19;;;;;;;1.63;1.40;;;6.00;99.90;;;;;;5110795;28;20528;-77
2021/12/08 04:02:46;;;;;;;2.17;1.30;;;6.00;99.90;;;;;;5110007;28;20170;-79
2021/12/08 04:05:12;;;;;;;2.63;1.50;;;6.10;99.90;;;;;;5075858;28;20182;-77
2021/12/08 04:07:45;;;;;;;1.67;1.43;;;6.00;99.90;;;;;;5109671;28;20262;-78
2021/12/08 04:10:17;;;;;;;3.87;1.70;;;6.00;99.90;;;;;;5060636;28;20263;-78
2021/12/08 04:12:44;;;;;;;1.97;1.10;;;6.00;99.90;;;;;;5110157;28;20178;-78
2021/12/08 04:15:11;;;;;;;1.60;1.30;;;6.10;99.90;;;;;;5109559;28;20167;-77
2021/12/08 04:17:43;;;;;;;2.20;1.47;;;6.00;99.90;;;;;;5092099;28;20179;-77
2021/12/08 04:20:18;;;;;;;1.20;1.10;;;6.10;99.90;;;;;;5109396;28;20553;-77
2021/12/08 04:22:46;;;;;;;1.60;1.33;;;6.10;99.90;;;;;;5091821;28;20177;-78
2021/12/08 04:25:17;;;;;;;1.67;1.30;;;6.10;99.90;;;;;;5110382;28;20187;-79
2021/12/08 04:27:47;;;;;;;4.17;1.60;;;6.10;99.90;;;;;;5110508;28;20221;-77
2021/12/08 04:30:45;;;;;;;3.70;1.50;;;6.20;99.90;;;;;;5109334;28;20266;-78
2021/12/08 04:33:11;;;;;;;1.47;1.33;;;6.20;99.90;;;;;;5093762;28;20183;-79
2021/12/08 04:35:39;;;;;;;5.27;1.60;;;6.20;99.90;;;;;;5092828;28;20224;-79
2021/12/08 04:38:11;;;;;;;3.53;1.53;;;6.00;99.90;;;;;;5092091;28;20580;-78
2021/12/08 04:43:51;;;;;;;2.30;1.33;;;6.00;99.90;;;;;;5109130;28;20244;-77
2021/12/08 04:49:49;;;;;;;3.97;1.70;;;6.10;99.90;;;;;;5099800;28;20198;-77
2021/12/08 05:05:37;;;;;;;3.23;2.13;;;6.50;99.90;;;;;;5109043;28;20658;-77
2021/12/08 05:08:22;;;;;;;2.07;1.70;;;6.50;99.90;;;;;;5110804;28;20163;-78
2021/12/08 05:10:51;;;;;;;2.17;1.60;;;6.50;99.90;;;;;;5109098;28;20202;-78
2021/12/08 05:13:19;;;;;;;2.93;1.60;;;6.30;99.90;;;;;;5110538;28;20172;-76
2021/12/08 05:15:53;;;;;;;4.00;1.53;;;6.40;99.90;;;;;;5091553;28;20562;-78
2021/12/08 05:18:25;;;;;;;2.47;1.60;;;6.20;99.90;;;;;;5091912;28;20274;-78
2021/12/08 05:20:55;;;;;;;2.27;1.50;;;6.10;99.90;;;;;;5092335;28;20266;-78
2021/12/08 05:23:31;;;;;;;2.40;1.70;;;6.00;99.90;;;;;;5109057;28;20219;-80
2021/12/08 05:26:11;;;;;;;2.43;1.80;;;6.20;99.90;;;;;;5110009;28;20657;-78
2021/12/08 05:28:39;;;;;;;2.23;1.50;;;6.20;99.90;;;;;;5092003;28;20178;-78
2021/12/08 05:31:23;;;;;;;2.10;1.70;;;6.20;99.90;;;;;;5092096;28;20203;-79
2021/12/08 05:33:51;;;;;;;2.47;1.70;;;6.20;99.90;;;;;;5110330;28;20171;-79
2021/12/08 05:36:18;;;;;;;1.90;1.63;;;6.20;99.90;;;;;;5092831;28;20168;-78
2021/12/08 05:38:45;;;;;;;2.80;1.90;;;6.30;99.90;;;;;;5092469;28;20182;-79
2021/12/08 05:41:25;;;;;;;3.57;1.70;;;6.30;99.90;;;;;;5074983;28;20191;-80
2021/12/08 05:43:51;;;;;;;3.07;2.13;;;6.30;99.90;;;;;;5109985;28;20169;-79
2021/12/08 05:46:20;;;;;;;2.43;1.70;;;6.30;99.90;;;;;;5108670;28;20661;-79
2021/12/08 05:48:48;;;;;;;2.07;1.70;;;6.40;99.90;;;;;;5110465;28;20181;-78
2021/12/08 05:51:19;;;;;;;3.67;2.13;;;6.50;99.90;;;;;;5109720;28;20207;-79
2021/12/08 05:53:48;;;;;;;3.57;1.90;;;6.60;99.90;;;;;;5116568;28;20171;-77
2021/12/08 05:56:17;;;;;;;3.57;2.10;;;6.50;99.90;;;;;;5111801;28;20632;-79
2021/12/08 05:58:45;;;;;;;2.27;1.70;;;6.50;99.90;;;;;;5112720;28;20195;-78
2021/12/08 06:01:44;;;;;;;2.83;1.83;;;6.60;99.90;;;;;;5112184;28;20186;-77
2021/12/08 06:04:11;;;;;;;4.17;2.03;;;6.60;99.90;;;;;;5117384;27;20182;-78
2021/12/08 06:06:38;;;;;;;3.03;2.07;;;6.60;99.90;;;;;;5119034;27;20228;-79
2021/12/08 06:09:07;;;;;;;2.37;2.03;;;6.60;99.90;;;;;;5078164;28;20203;-77
2021/12/08 06:11:34;;;;;;;4.70;2.60;;;6.70;99.90;;;;;;5112164;28;20217;-83
2021/12/08 06:14:04;;;;;;;5.37;2.60;;;6.70;99.90;;;;;;5107574;27;20183;-78
2021/12/08 06:16:32;;;;;;;3.73;2.20;;;6.70;99.90;;;;;;5135091;27;20178;-79
2021/12/08 06:18:59;;;;;;;2.77;2.00;;;6.60;99.90;;;;;;5115215;27;20533;-79
2021/12/08 06:21:28;;;;;;;3.27;2.30;;;6.40;99.90;;;;;;5132410;27;20170;-79
2021/12/08 06:23:56;;;;;;;3.33;2.37;;;6.50;99.90;;;;;;5078459;28;20208;-80
2021/12/08 06:26:24;;;;;;;3.57;2.00;;;6.60;99.90;;;;;;5095223;28;20194;-78
2021/12/08 06:28:52;;;;;;;2.83;2.27;;;6.60;99.90;;;;;;5111931;28;20176;-79
2021/12/08 06:31:20;;;;;;;3.93;2.40;;;6.80;99.90;;;;;;5111369;28;20259;-78
2021/12/08 06:33:48;;;;;;;3.20;2.33;;;6.70;99.90;;;;;;5089808;28;20232;-79
2021/12/08 06:36:38;;;;;;;2.60;2.20;;;6.70;99.90;;;;;;5092198;28;20171;-79
2021/12/08 06:39:12;;;;;;;4.17;2.67;;;6.70;99.90;;;;;;5102321;28;20171;-79
2021/12/08 06:41:43;;;;;;;4.30;2.53;;;6.50;99.90;;;;;;5094734;28;20595;-77
2021/12/08 06:44:15;;;;;;;3.73;2.40;;;6.60;99.90;;;;;;5105834;28;20232;-78
2021/12/08 06:46:42;;;;;;;3.07;2.03;;;6.60;99.90;;;;;;5101938;28;20176;-78
2021/12/08 06:49:11;;;;;;;4.27;2.60;;;6.70;99.90;;;;;;5084823;28;20263;-77
2021/12/08 06:51:44;;;;;;;3.00;2.37;;;6.50;99.90;;;;;;5076198;28;20263;-77
2021/12/08 06:54:16;;;;;;;4.80;2.37;;;6.50;99.90;;;;;;5098460;28;20172;-79
2021/12/08 06:56:53;;;;;;;3.70;1.90;;;6.60;99.90;;;;;;5096797;28;20305;-80
2021/12/08 06:59:22;;;;;;;3.97;2.13;;;6.50;99.90;;;;;;5075725;28;20171;-78
2021/12/08 07:02:06;;;;;;;3.17;2.10;;;6.60;99.90;;;;;;5100693;28;20662;-79
2021/12/08 07:07:31;;;;;;;2.93;2.17;;;6.80;99.90;;;;;;5100931;28;20183;-80
2021/12/08 07:10:04;;;;;;;3.63;2.20;;;6.80;99.90;;;;;;5093087;28;20551;-78
2021/12/08 07:12:38;;;;;;;3.43;2.40;;;6.80;99.90;;;;;;5096710;28;20199;-78
2021/12/08 07:15:07;;;;;;;3.00;2.07;;;6.90;99.90;;;;;;5093844;28;20167;-79
2021/12/08 07:17:36;;;;;;;3.67;2.50;;;7.00;99.90;;;;;;5083265;28;20544;-77
2021/12/08 07:20:40;;;;;;;5.47;2.33;;;7.00;99.90;;;;;;5081471;28;20247;-77
2021/12/08 07:23:08;;;;;;;5.47;2.63;;;7.00;99.90;;;;;;5112085;28;20179;-77
2021/12/08 07:25:34;;;;;;;5.40;2.93;;;6.80;99.90;;;;;;5093052;28;20195;-78
2021/12/08 07:28:02;;;;;;;3.60;2.80;;;6.60;99.90;;;;;;5094098;28;20172;-79
2021/12/08 07:30:43;;;;;;;3.67;2.50;;;6.90;99.90;;;;;;5098846;28;20659;-77
2021/12/08 07:33:08;;;;;;;4.07;2.40;;;7.00;99.90;;;;;;5093739;28;20186;-79
2021/12/08 07:35:44;;;;;;;3.20;2.17;;;6.90;99.90;;;;;;5055275;28;20176;-80
2021/12/08 07:38:13;;;;;;;5.10;2.23;;;7.20;99.90;;;;;;5090482;28;20631;-78
2021/12/08 07:41:01;;;;;;;2.43;2.10;;;7.20;99.90;;;;;;5074418;28;20703;-76
2021/12/08 07:43:28;;;;;;;3.03;1.87;;;7.20;99.90;;;;;;5092757;28;20179;-74
2021/12/08 07:46:03;;;;;;;3.47;2.00;;;7.10;99.90;;;;;;5092496;28;20530;-77
2021/12/08 07:48:35;;;;;;;3.10;2.20;;;7.20;99.90;;;;;;5092902;28;20231;-78
2021/12/08 07:51:21;;;;;;;3.93;2.10;;;7.20;99.90;;;;;;5111940;28;20464;-79
2021/12/08 07:53:48;;;;;;;5.50;2.23;;;7.20;99.90;;;;;;5109856;28;20270;-79
2021/12/08 07:56:17;;;;;;;4.37;2.20;;;7.00;99.90;;;;;;5112424;28;20224;-82
2021/12/08 07:58:46;;;;;;;5.87;2.20;;;7.10;99.90;;;;;;5095338;28;20167;-78
2021/12/08 08:01:17;;;;;;;3.63;2.03;;;7.10;99.90;;;;;;5105830;28;20293;-81
2021/12/08 08:03:43;;;;;;;2.23;1.60;;;7.10;99.90;;;;;;5063331;28;20176;-79
2021/12/08 08:06:16;;;;;;;1.10;1.00;;;7.10;99.90;;;;;;5093270;28;20182;-78
2021/12/08 08:08:43;;;;;;;1.70;1.40;;;7.30;99.90;;;;;;5094229;28;20179;-82
2021/12/08 08:11:18;;;;;;;3.27;1.60;;;7.30;99.90;;;;;;5097145;28;20629;-81
2021/12/08 08:13:44;;;;;;;2.33;1.70;;;7.30;99.90;;;;;;5077914;28;20195;-76
2021/12/08 08:16:14;;;;;;;8.47;4.53;;;7.20;99.90;;;;;;5099039;28;20230;-83
2021/12/08 08:18:45;;;;;;;4.57;2.60;;;7.40;99.90;;;;;;5088745;28;20270;-76
2021/12/08 08:21:17;;;;;;;1.50;1.30;;;7.00;99.90;;;;;;5106597;28;20294;-76
2021/12/08 08:23:43;;;;;;;3.17;2.13;;;7.10;99.90;;;;;;5081170;28;20236;-77
2021/12/08 08:26:11;;;;;;;3.33;2.00;;;7.30;99.90;;;;;;5104127;28;20278;-74
2021/12/08 08:28:40;;;;;;;6.63;2.40;;;7.30;99.90;;;;;;5089946;28;20198;-74
2021/12/08 08:31:36;;;;;;;3.77;2.20;;;7.30;99.90;;;;;;5107670;28;20200;-79
2021/12/08 08:34:03;;;;;;;5.17;2.50;;;7.30;99.90;;;;;;5074449;28;20190;-75
2021/12/08 08:36:34;;;;;;;3.47;1.90;;;6.90;99.90;;;;;;5094217;28;20200;-81
2021/12/08 08:39:21;;;;;;;6.17;2.40;;;7.20;99.90;;;;;;5095862;28;20539;-75
2021/12/08 08:41:57;;;;;;;7.33;2.63;;;7.20;99.90;;;;;;5092227;28;20187;-82
2021/12/08 08:44:49;;;;;;;3.27;2.40;;;7.30;99.90;;;;;;5085126;28;20182;-81
2021/12/08 08:47:23;;;;;;;4.23;2.60;;;7.30;99.90;;;;;;5094282;28;20179;-75
2021/12/08 08:49:50;;;;;;;3.27;1.77;;;7.00;99.90;;;;;;5114392;28;20257;-80
2021/12/08 08:52:29;;;;;;;4.63;2.07;;;7.00;99.90;;;;;;5114442;28;20222;-76
2021/12/08 08:54:57;;;;;;;4.30;2.60;;;7.10;99.90;;;;;;5112866;28;20159;-76
2021/12/08 08:57:34;;;;;;;3.80;2.67;;;7.40;99.90;;;;;;5096441;28;20227;-76
2021/12/08 09:00:31;;;;;;;5.63;2.63;;;7.30;99.90;;;;;;5118053;28;20163;-78
2021/12/08 09:03:02;;;;;;;3.87;2.80;;;7.30;99.90;;;;;;5112946;28;20187;-77
2021/12/08 09:05:33;;;;;;;5.63;3.10;;;7.40;99.90;;;;;;5094817;28;20186;-75
2021/12/08 09:08:02;;;;;;;4.50;2.80;;;7.40;99.90;;;;;;5111520;28;20310;-75
2021/12/08 09:10:50;;;;;;;6.73;2.90;;;7.50;99.90;;;;;;5077856;28;20313;-76
2021/12/08 09:13:30;;;;;;;6.70;2.97;;;7.30;99.90;;;;;;5113373;28;20163;-77
2021/12/08 09:16:01;;;;;;;6.10;2.53;;;7.30;99.90;;;;;;5110954;28;20167;-78
2021/12/08 09:18:56;;;;;;;3.83;2.17;;;7.30;99.90;;;;;;5111308;28;20163;-79
2021/12/08 09:21:55;;;;;;;3.40;2.23;;;7.40;99.90;;;;;;5074024;28;20172;-80
2021/12/08 09:24:35;;;;;;;7.17;2.20;;;7.30;99.90;;;;;;5061123;28;20182;-77
2021/12/08 09:27:02;;;;;;;9.73;5.97;;;7.30;99.90;;;;;;5095481;28;20193;-78
2021/12/08 09:29:36;;;;;;;4.70;3.10;;;7.30;99.90;;;;;;5080574;28;20251;-76
2021/12/08 09:32:09;;;;;;;3.73;2.17;;;7.40;99.90;;;;;;5080177;28;20219;-77
2021/12/08 09:34:45;;;;;;;4.80;2.30;;;7.30;99.90;;;;;;5064277;28;20167;-80
2021/12/08 09:37:19;;;;;;;9.60;3.60;;;7.40;99.90;;;;;;5111557;28;20497;-78
2021/12/08 09:39:49;;;;;;;4.50;1.83;;;7.40;99.90;;;;;;5111431;28;20255;-75
2021/12/08 09:42:20;;;;;;;5.47;2.40;;;7.50;99.90;;;;;;5079013;28;20662;-78
2021/12/08 09:44:58;;;;;;;3.13;2.00;;;7.60;99.90;;;;;;5111641;28;20224;-78
2021/12/08 09:47:29;;;;;;;3.00;2.30;;;7.50;99.90;;;;;;5100009;28;20664;-77
2021/12/08 09:50:00;;;;;;;3.30;1.97;;;7.50;99.90;;;;;;5115498;28;20175;-78
2021/12/08 09:52:27;;;;;;;3.77;2.00;;;7.50;99.90;;;;;;5117503;28;20210;-76
2021/12/08 09:54:59;;;;;;;6.27;3.50;;;7.60;99.90;;;;;;5117098;28;20171;-76
2021/12/08 09:57:26;;;;;;;3.27;2.37;;;7.60;99.90;;;;;;5115172;28;20179;-79
2021/12/08 09:59:53;;;;;;;3.90;2.00;;;7.60;99.90;;;;;;5097326;28;20183;-76
2021/12/08 10:02:33;;;;;;;3.10;2.20;;;7.60;99.90;;;;;;5097418;28;20649;-77
2021/12/08 10:05:11;;;;;;;4.77;2.03;;;7.60;99.90;;;;;;5115760;28;20178;-79
2021/12/08 10:07:37;;;;;;;3.63;2.23;;;7.60;99.90;;;;;;5115562;28;20612;-77
2021/12/08 10:10:05;;;;;;;5.03;2.40;;;7.50;99.90;;;;;;5080332;28;20182;-76
2021/12/08 10:12:34;;;;;;;2.63;2.00;;;7.60;99.90;;;;;;5096517;28;20198;-79
2021/12/08 10:15:04;;;;;;;3.23;2.00;;;7.60;99.90;;;;;;5114557;28;20225;-77
2021/12/08 10:17:29;;;;;;;4.23;2.00;;;7.60;99.90;;;;;;5081193;28;20179;-78
2021/12/08 10:20:13;;;;;;;3.10;2.27;;;7.60;99.90;;;;;;5118857;28;20197;-78
2021/12/08 10:22:42;;;;;;;2.60;2.00;;;7.70;99.90;;;;;;5118913;28;20174;-77
2021/12/08 10:25:19;;;;;;;7.93;2.70;;;7.40;99.90;;;;;;5114608;28;20654;-78
2021/12/08 10:28:17;;;;;;;5.37;3.30;;;6.90;99.90;;;;;;5101842;28;20166;-79
2021/12/08 10:31:05;;;;;;;5.20;3.37;;;6.90;99.90;;;;;;5115889;28;20203;-76
2021/12/08 10:34:09;;;;;;;6.60;3.57;;;7.00;99.90;;;;;;5114854;28;20171;-77
2021/12/08 10:36:58;;;;;;;5.90;3.87;;;7.20;99.90;;;;;;5115014;28;20535;-75
2021/12/08 10:39:30;;;;;;;10.13;4.90;;;7.40;99.90;;;;;;5113832;28;20181;-80
2021/12/08 10:42:14;;;;;;;10.47;5.73;;;7.40;99.90;;;;;;5115247;28;20187;-74
2021/12/08 10:45:15;;;;;;;7.03;4.87;;;7.40;99.90;;;;;;5097249;28;20198;-76
2021/12/08 10:48:04;;;;;;;10.20;4.00;;;7.60;99.90;;;;;;5113324;28;20167;-75
2021/12/08 10:56:19;;;;;;;5.43;3.20;;;7.30;99.90;;;;;;5112513;28;20579;-76
2021/12/08 10:58:50;;;;;;;4.00;3.00;;;7.50;99.90;;;;;;5113693;28;20187;-76
2021/12/08 11:01:19;;;;;;;3.80;2.73;;;7.90;99.90;;;;;;5112361;28;20242;-77
2021/12/08 11:03:47;;;;;;;7.13;3.67;;;7.90;99.90;;;;;;5112137;28;20175;-78
2021/12/08 11:06:19;;;;;;;5.70;3.07;;;8.20;99.90;;;;;;5113830;28;20167;-77
2021/12/08 11:08:48;;;;;;;2.83;2.30;;;8.00;99.90;;;;;;5114883;28;20185;-78
2021/12/08 11:11:20;;;;;;;2.73;2.20;;;8.10;99.90;;;;;;5114485;28;20637;-76
2021/12/08 11:13:55;;;;;;;2.47;1.63;;;8.30;99.90;;;;;;5113955;28;20159;-77
2021/12/08 11:16:33;;;;;;;3.30;1.83;;;8.40;99.90;;;;;;5111437;28;20518;-77
2021/12/08 11:19:14;;;;;;;3.20;1.80;;;8.40;99.90;;;;;;5094333;28;20207;-77
2021/12/08 11:21:47;;;;;;;1.63;1.53;;;8.50;99.90;;;;;;5094240;28;20170;-75
2021/12/08 11:24:44;;;;;;;3.93;2.10;;;8.40;99.90;;;;;;5077690;28;20209;-75
2021/12/08 11:27:27;;;;;;;3.80;2.00;;;8.50;99.90;;;;;;5113243;28;20190;-77
2021/12/08 11:29:52;;;;;;;2.57;2.00;;;8.40;99.90;;;;;;5114131;28;20215;-77
2021/12/08 11:32:22;;;;;;;3.30;2.27;;;8.20;99.90;;;;;;5094168;28;20213;-77
2021/12/08 11:34:49;;;;;;;4.00;2.03;;;8.00;99.90;;;;;;5112170;28;20171;-75
2021/12/08 11:37:19;;;;;;;1.70;1.50;;;8.20;99.90;;;;;;5112587;28;20220;-77
2021/12/08 11:39:52;;;;;;;2.90;1.80;;;8.20;99.90;;;;;;5111848;28;20231;-78
2021/12/08 11:42:21;;;;;;;2.23;1.90;;;8.20;99.90;;;;;;5111781;28;20194;-75
2021/12/08 11:44:50;;;;;;;3.20;2.00;;;8.10;99.90;;;;;;5112340;28;20290;-75
2021/12/08 11:47:32;;;;;;;2.97;1.80;;;8.20;99.90;;;;;;5111621;28;20250;-78
2021/12/08 11:50:01;;;;;;;3.37;1.90;;;8.20;99.90;;;;;;5093978;28;20183;-75
2021/12/08 11:52:32;;;;;;;2.03;1.50;;;8.40;99.90;;;;;;5110024;28;20289;-74
2021/12/08 11:55:11;;;;;;;1.87;1.50;;;8.50;99.90;;;;;;5111286;28;20225;-76
2021/12/08 11:57:58;;;;;;;4.97;2.13;;;8.80;99.90;;;;;;5110430;28;20167;-75
2021/12/08 12:00:34;;;;;;;3.03;2.23;;;9.00;99.90;;;;;;5093696;28;20180;-75
2021/12/08 12:03:09;;;;;;;4.27;2.80;;;9.20;99.90;;;;;;5110731;28;20232;-76
2021/12/08 12:05:46;;;;;;;3.53;2.53;;;9.20;99.90;;;;;;5061425;28;20175;-77
2021/12/08 12:08:16;;;;;;;5.20;2.87;;;9.20;99.90;;;;;;5111435;28;20154;-77
2021/12/08 12:10:46;;;;;;;7.43;3.47;;;9.20;99.90;;;;;;5111404;28;20608;-75
2021/12/08 12:13:13;;;;;;;5.00;3.27;;;9.20;99.90;;;;;;5110540;28;20167;-76
2021/12/08 12:15:44;;;;;;;5.77;3.17;;;9.10;99.90;;;;;;5076449;28;20171;-75
2021/12/08 12:18:11;;;;;;;8.63;3.40;;;9.10;99.90;;;;;;5110915;28;20662;-78
2021/12/08 12:20:44;;;;;;;4.07;2.43;;;9.20;99.90;;;;;;5110429;28;20201;-78
2021/12/08 12:23:42;;;;;;;3.90;2.73;;;9.30;99.90;;;;;;5096364;28;20748;-75
2021/12/08 12:26:28;;;;;;;6.33;2.77;;;9.40;99.90;;;;;;5114334;28;20211;-79
2021/12/08 12:29:04;;;;;;;4.60;2.77;;;9.50;99.90;;;;;;5111563;28;20220;-78
2021/12/08 12:31:45;;;;;;;5.50;3.20;;;9.60;99.90;;;;;;5114409;28;20190;-77
2021/12/08 12:34:31;;;;;;;2.67;2.30;;;9.40;99.90;;;;;;5112549;28;20196;-80
2021/12/08 12:37:08;;;;;;;7.73;3.37;;;9.20;99.90;;;;;;5110891;28;20158;-76
2021/12/08 12:39:34;;;;;;;4.67;2.67;;;8.90;99.90;;;;;;5112310;28;20181;-76
2021/12/08 12:42:02;;;;;;;3.83;2.50;;;8.70;99.90;;;;;;5093548;28;20191;-79
2021/12/08 12:44:30;;;;;;;3.63;2.37;;;8.50;99.90;;;;;;5111316;28;20174;-77
2021/12/08 12:47:11;;;;;;;2.67;1.90;;;8.50;99.90;;;;;;5093866;28;20587;-79
2021/12/08 12:49:42;;;;;;;4.03;2.07;;;8.50;99.90;;;;;;5110582;28;20272;-79
2021/12/08 12:52:11;;;;;;;3.90;2.30;;;8.50;99.90;;;;;;5109361;28;20312;-78
2021/12/08 12:54:39;;;;;;;3.10;2.10;;;8.10;99.90;;;;;;5109352;28;20178;-79
2021/12/08 12:57:07;;;;;;;2.80;2.10;;;8.00;99.90;;;;;;5109207;28;20175;-75
2021/12/08 12:59:49;;;;;;;3.23;1.93;;;7.90;99.90;;;;;;5110683;28;20179;-75
2021/12/08 13:02:26;;;;;;;3.53;2.37;;;8.00;99.90;;;;;;5111648;28;20550;-78
2021/12/08 13:05:10;;;;;;;3.10;2.00;;;8.20;99.90;;;;;;5098193;28;20186;-78
2021/12/08 13:07:42;;;;;;;2.53;1.90;;;8.30;99.90;;;;;;5114192;28;20642;-77
2021/12/08 13:10:15;;;;;;;3.50;2.00;;;8.30;99.90;;;;;;5097632;28;20183;-79
2021/12/08 13:12:44;;;;;;;3.50;2.20;;;8.30;99.90;;;;;;5114122;28;20306;-76
2021/12/08 13:15:19;;;;;;;3.17;2.07;;;8.30;99.90;;;;;;5099161;28;20198;-75
2021/12/08 13:18:09;;;;;;;4.40;1.77;;;8.20;99.90;;;;;;5116952;28;20194;-75
2021/12/08 13:20:41;;;;;;;3.00;1.93;;;8.10;99.90;;;;;;5097942;28;20175;-79
2021/12/08 13:23:17;;;;;;;2.97;2.10;;;8.10;99.90;;;;;;5114625;28;20246;-78
2021/12/08 13:25:55;;;;;;;3.67;2.10;;;8.30;99.90;;;;;;5115607;28;20191;-74
2021/12/08 13:31:37;;;;;;;3.00;2.30;;;8.20;99.90;;;;;;5114392;28;20207;-78
2021/12/08 13:34:08;;;;;;;4.80;2.53;;;8.20;99.90;;;;;;5066915;28;20186;-79
2021/12/08 13:36:46;;;;;;;5.87;2.50;;;8.20;99.90;;;;;;5081261;28;20171;-79
2021/12/08 13:39:27;;;;;;;6.07;3.00;;;8.10;99.90;;;;;;5114404;28;20617;-79
2021/12/08 13:42:15;;;;;;;3.33;2.60;;;8.10;99.90;;;;;;5114214;28;20183;-77
2021/12/08 13:44:55;;;;;;;4.53;2.73;;;8.10;99.90;;;;;;5113517;28;20180;-75
2021/12/08 13:47:36;;;;;;;4.43;2.80;;;8.10;99.90;;;;;;5114094;28;20175;-81
2021/12/08 13:50:10;;;;;;;5.87;3.20;;;8.10;99.90;;;;;;5114522;28;20163;-79
2021/12/08 13:53:05;;;;;;;5.00;3.13;;;8.10;99.90;;;;;;5114270;28;20210;-74
2021/12/08 13:55:33;;;;;;;6.00;3.93;;;8.20;99.90;;;;;;5110928;28;20336;-78
2021/12/08 13:58:02;;;;;;;5.50;3.10;;;8.10;99.90;;;;;;5095849;28;20550;-76
2021/12/08 14:00:39;;;;;;;3.30;2.87;;;8.00;99.90;;;;;;5096750;28;20175;-78
2021/12/08 14:03:17;;;;;;;5.53;3.20;;;7.90;99.90;;;;;;5113394;28;20163;-75
2021/12/08 14:05:54;;;;;;;5.03;3.60;;;7.90;99.90;;;;;;5113718;28;20163;-78
2021/12/08 14:08:31;;;;;;;6.03;3.00;;;8.00;99.90;;;;;;5096361;28;20174;-77
2021/12/08 14:11:06;;;;;;;4.93;2.60;;;7.90;99.90;;;;;;5112946;28;20229;-80
2021/12/08 14:13:37;;;;;;;3.77;2.87;;;8.00;99.90;;;;;;5111452;28;20531;-78
2021/12/08 14:16:09;;;;;;;4.67;3.10;;;8.00;99.90;;;;;;5095630;28;20179;-76